sensor_id;sensor_type;location;lat;lon;timestamp;pressure;altitude;pressure_sealevel;temperature;humidity
1726;BME280;41776;48.260;8.928;2023-10-13T00:01:20;51986.94;;;-145.69;43.46
1726;BME280;41776;48.260;8.928;2023-10-13T00:03:46;51981.00;;;-145.69;43.70
1726;BME280;41776;48.260;8.928;2023-10-13T00:06:13;51959.22;;;-145.69;43.71
1726;BME280;41776;48.260;8.928;2023-10-13T00:08:41;51967.13;;;-145.69;44.23
1726;BME280;41776;48.260;8.928;2023-10-13T00:11:12;51933.47;;;-145.69;44.58
1726;BME280;41776;48.260;8.928;2023-10-13T00:13:39;51965.16;;;-145.69;44.32
1726;BME280;41776;48.260;8.928;2023-10-13T00:16:15;51981.00;;;-145.69;44.26
1726;BME280;41776;48.260;8.928;2023-10-13T00:18:46;51973.06;;;-145.69;44.45
1726;BME280;41776;48.260;8.928;2023-10-13T00:21:14;51965.16;;;-145.69;44.56
1726;BME280;41776;48.260;8.928;2023-10-13T00:23:45;51965.16;;;-145.69;45.05
1726;BME280;41776;48.260;8.928;2023-10-13T00:26:20;51963.19;;;-145.69;45.13
1726;BME280;41776;48.260;8.928;2023-10-13T00:28:49;51967.13;;;-145.69;44.64
1726;BME280;41776;48.260;8.928;2023-10-13T00:31:24;51969.13;;;-145.69;45.60
1726;BME280;41776;48.260;8.928;2023-10-13T00:34:00;51953.28;;;-145.69;45.25
1726;BME280;41776;48.260;8.928;2023-10-13T00:36:34;51969.13;;;-145.69;45.01
1726;BME280;41776;48.260;8.928;2023-10-13T00:39:01;51975.06;;;-145.69;45.18
1726;BME280;41776;48.260;8.928;2023-10-13T00:41:30;51965.16;;;-145.69;44.81
1726;BME280;41776;48.260;8.928;2023-10-13T00:44:21;51977.03;;;-145.69;44.91
1726;BME280;41776;48.260;8.928;2023-10-13T00:46:53;51953.28;;;-145.69;45.65
1726;BME280;41776;48.260;8.928;2023-10-13T00:49:22;51959.22;;;-145.69;44.73
1726;BME280;41776;48.260;8.928;2023-10-13T00:51:49;52000.81;;;-145.69;44.55
1726;BME280;41776;48.260;8.928;2023-10-13T00:54:17;51965.16;;;-145.69;44.90
1726;BME280;41776;48.260;8.928;2023-10-13T00:56:46;51971.09;;;-145.69;46.08
1726;BME280;41776;48.260;8.928;2023-10-13T00:59:14;51949.31;;;-145.69;46.24
1726;BME280;41776;48.260;8.928;2023-10-13T01:01:40;51951.28;;;-145.69;45.72
1726;BME280;41776;48.260;8.928;2023-10-13T01:04:09;51979.03;;;-145.69;45.94
1726;BME280;41776;48.260;8.928;2023-10-13T01:06:38;51961.19;;;-145.69;46.08
1726;BME280;41776;48.260;8.928;2023-10-13T01:09:06;51963.19;;;-145.69;46.25
1726;BME280;41776;48.260;8.928;2023-10-13T01:11:39;51957.25;;;-145.69;46.34
1726;BME280;41776;48.260;8.928;2023-10-13T01:14:09;51965.16;;;-145.69;46.03
1726;BME280;41776;48.260;8.928;2023-10-13T01:16:36;51969.13;;;-145.69;46.33
1726;BME280;41776;48.260;8.928;2023-10-13T01:19:05;51977.03;;;-145.69;46.31
1726;BME280;41776;48.260;8.928;2023-10-13T01:21:30;52000.81;;;-145.69;46.84
1726;BME280;41776;48.260;8.928;2023-10-13T01:24:00;51967.13;;;-145.69;46.89
1726;BME280;41776;48.260;8.928;2023-10-13T01:26:26;51981.00;;;-145.69;48.62
1726;BME280;41776;48.260;8.928;2023-10-13T01:28:57;51986.94;;;-145.69;47.96
1726;BME280;41776;48.260;8.928;2023-10-13T01:31:23;51973.06;;;-145.69;47.92
1726;BME280;41776;48.260;8.928;2023-10-13T01:34:02;51998.81;;;-145.69;48.83
1726;BME280;41776;48.260;8.928;2023-10-13T01:36:28;51992.88;;;-145.69;48.91
1726;BME280;41776;48.260;8.928;2023-10-13T01:39:02;51982.97;;;-145.69;48.39
1726;BME280;41776;48.260;8.928;2023-10-13T01:41:28;51996.84;;;-145.69;47.76
1726;BME280;41776;48.260;8.928;2023-10-13T01:43:56;51967.13;;;-145.69;47.77
1726;BME280;41776;48.260;8.928;2023-10-13T01:46:22;51986.94;;;-145.69;47.80
1726;BME280;41776;48.260;8.928;2023-10-13T01:48:49;51977.03;;;-145.69;48.04
1726;BME280;41776;48.260;8.928;2023-10-13T01:51:14;51994.88;;;-145.69;48.08
1726;BME280;41776;48.260;8.928;2023-10-13T01:53:41;51961.19;;;-145.69;47.75
1726;BME280;41776;48.260;8.928;2023-10-13T01:56:08;51965.16;;;-145.69;48.13
1726;BME280;41776;48.260;8.928;2023-10-13T01:58:40;51988.91;;;-145.69;47.94
1726;BME280;41776;48.260;8.928;2023-10-13T02:01:08;51992.88;;;-145.69;48.36
1726;BME280;41776;48.260;8.928;2023-10-13T02:03:35;51988.91;;;-145.69;48.61
1726;BME280;41776;48.260;8.928;2023-10-13T02:06:06;52006.75;;;-145.69;49.01
1726;BME280;41776;48.260;8.928;2023-10-13T02:08:36;51986.94;;;-145.69;48.28
1726;BME280;41776;48.260;8.928;2023-10-13T02:11:09;51984.97;;;-145.69;48.56
1726;BME280;41776;48.260;8.928;2023-10-13T02:13:35;52008.72;;;-145.69;48.20
1726;BME280;41776;48.260;8.928;2023-10-13T02:16:10;52008.72;;;-145.69;48.47
1726;BME280;41776;48.260;8.928;2023-10-13T02:18:37;52002.78;;;-145.69;48.91
1726;BME280;41776;48.260;8.928;2023-10-13T02:21:07;52016.66;;;-145.69;48.55
1726;BME280;41776;48.260;8.928;2023-10-13T02:23:38;51975.06;;;-145.69;48.48
1726;BME280;41776;48.260;8.928;2023-10-13T02:26:10;52034.47;;;-145.69;48.72
1726;BME280;41776;48.260;8.928;2023-10-13T02:28:38;52022.59;;;-145.69;49.00
1726;BME280;41776;48.260;8.928;2023-10-13T02:31:06;52016.66;;;-145.69;49.00
1726;BME280;41776;48.260;8.928;2023-10-13T02:33:34;52002.78;;;-145.69;48.87
1726;BME280;41776;48.260;8.928;2023-10-13T02:36:01;51988.91;;;-145.69;48.99
1726;BME280;41776;48.260;8.928;2023-10-13T02:38:31;51990.91;;;-145.69;49.26
1726;BME280;41776;48.260;8.928;2023-10-13T02:41:00;52000.81;;;-145.69;50.06
1726;BME280;41776;48.260;8.928;2023-10-13T02:43:33;52012.69;;;-145.69;49.86
1726;BME280;41776;48.260;8.928;2023-10-13T02:45:59;52004.75;;;-145.69;49.53
1726;BME280;41776;48.260;8.928;2023-10-13T02:48:27;51973.06;;;-145.69;49.00
1726;BME280;41776;48.260;8.928;2023-10-13T02:50:57;51988.91;;;-145.69;48.98
1726;BME280;41776;48.260;8.928;2023-10-13T02:53:27;52004.75;;;-145.69;49.08
1726;BME280;41776;48.260;8.928;2023-10-13T02:55:54;51982.97;;;-145.69;48.61
1726;BME280;41776;48.260;8.928;2023-10-13T02:58:22;52004.75;;;-145.69;48.81
1726;BME280;41776;48.260;8.928;2023-10-13T03:01:06;52008.72;;;-145.69;48.87
1726;BME280;41776;48.260;8.928;2023-10-13T03:03:43;51996.84;;;-145.69;49.15
1726;BME280;41776;48.260;8.928;2023-10-13T03:06:08;52014.66;;;-145.69;48.72
1726;BME280;41776;48.260;8.928;2023-10-13T03:08:37;51984.97;;;-145.69;49.02
1726;BME280;41776;48.260;8.928;2023-10-13T03:11:03;52002.78;;;-145.69;49.86
1726;BME280;41776;48.260;8.928;2023-10-13T03:13:30;52040.41;;;-145.69;50.47
1726;BME280;41776;48.260;8.928;2023-10-13T03:15:58;52012.69;;;-145.69;50.14
1726;BME280;41776;48.260;8.928;2023-10-13T03:18:26;52024.56;;;-145.69;49.23
1726;BME280;41776;48.260;8.928;2023-10-13T03:20:59;51990.91;;;-145.69;49.12
1726;BME280;41776;48.260;8.928;2023-10-13T03:23:27;51996.84;;;-145.69;49.17
1726;BME280;41776;48.260;8.928;2023-10-13T03:25:53;52004.75;;;-145.69;49.31
1726;BME280;41776;48.260;8.928;2023-10-13T03:28:21;51996.84;;;-145.69;49.25
1726;BME280;41776;48.260;8.928;2023-10-13T03:30:50;52012.69;;;-145.69;50.33
1726;BME280;41776;48.260;8.928;2023-10-13T03:33:18;51986.94;;;-145.69;49.99
1726;BME280;41776;48.260;8.928;2023-10-13T03:35:52;52006.75;;;-145.69;49.66
1726;BME280;41776;48.260;8.928;2023-10-13T03:38:20;52012.69;;;-145.69;49.78
1726;BME280;41776;48.260;8.928;2023-10-13T03:40:46;51992.88;;;-145.69;49.58
1726;BME280;41776;48.260;8.928;2023-10-13T03:43:22;52014.66;;;-145.69;50.57
1726;BME280;41776;48.260;8.928;2023-10-13T03:45:50;51998.81;;;-145.69;50.24
1726;BME280;41776;48.260;8.928;2023-10-13T03:48:26;52024.56;;;-145.69;50.90
1726;BME280;41776;48.260;8.928;2023-10-13T03:50:59;51982.97;;;-145.69;50.83
1726;BME280;41776;48.260;8.928;2023-10-13T03:53:32;52008.72;;;-145.69;50.80
1726;BME280;41776;48.260;8.928;2023-10-13T03:56:02;52020.59;;;-145.69;51.16
1726;BME280;41776;48.260;8.928;2023-10-13T03:58:37;52002.78;;;-145.69;50.72
1726;BME280;41776;48.260;8.928;2023-10-13T04:01:07;51988.91;;;-145.69;51.38
1726;BME280;41776;48.260;8.928;2023-10-13T04:03:35;52028.53;;;-145.69;52.53
1726;BME280;41776;48.260;8.928;2023-10-13T04:06:04;52012.69;;;-145.69;52.54
1726;BME280;41776;48.260;8.928;2023-10-13T04:08:32;52024.56;;;-145.69;52.22
1726;BME280;41776;48.260;8.928;2023-10-13T04:11:13;52006.75;;;-145.69;51.66
1726;BME280;41776;48.260;8.928;2023-10-13T04:13:58;52000.81;;;-145.69;50.90
1726;BME280;41776;48.260;8.928;2023-10-13T04:16:42;52012.69;;;-145.69;51.13
1726;BME280;41776;48.260;8.928;2023-10-13T04:19:20;51996.84;;;-145.69;50.87
1726;BME280;41776;48.260;8.928;2023-10-13T04:21:51;52024.56;;;-145.69;50.21
1726;BME280;41776;48.260;8.928;2023-10-13T04:24:39;52024.56;;;-145.69;50.54
1726;BME280;41776;48.260;8.928;2023-10-13T04:27:25;52012.69;;;-145.69;50.64
1726;BME280;41776;48.260;8.928;2023-10-13T04:30:11;52002.78;;;-145.69;51.10
1726;BME280;41776;48.260;8.928;2023-10-13T04:32:49;52034.47;;;-145.69;51.30
1726;BME280;41776;48.260;8.928;2023-10-13T04:35:31;51996.84;;;-145.69;52.26
1726;BME280;41776;48.260;8.928;2023-10-13T04:38:03;52002.78;;;-145.69;51.92
1726;BME280;41776;48.260;8.928;2023-10-13T04:40:43;51992.88;;;-145.69;51.50
1726;BME280;41776;48.260;8.928;2023-10-13T04:43:24;52008.72;;;-145.69;51.28
1726;BME280;41776;48.260;8.928;2023-10-13T04:45:59;52008.72;;;-145.69;52.44
1726;BME280;41776;48.260;8.928;2023-10-13T04:48:39;52020.59;;;-145.69;52.24
1726;BME280;41776;48.260;8.928;2023-10-13T04:51:05;51988.91;;;-145.69;52.08
1726;BME280;41776;48.260;8.928;2023-10-13T04:54:10;52052.28;;;-145.69;52.69
1726;BME280;41776;48.260;8.928;2023-10-13T04:56:38;52006.75;;;-145.69;52.23
1726;BME280;41776;48.260;8.928;2023-10-13T04:59:39;52020.59;;;-145.69;52.30
1726;BME280;41776;48.260;8.928;2023-10-13T05:02:29;52044.38;;;-145.69;52.67
1726;BME280;41776;48.260;8.928;2023-10-13T05:05:18;51982.97;;;-145.69;52.54
1726;BME280;41776;48.260;8.928;2023-10-13T05:07:56;52028.53;;;-145.69;52.82
1726;BME280;41776;48.260;8.928;2023-10-13T05:10:41;52006.75;;;-145.69;52.01
1726;BME280;41776;48.260;8.928;2023-10-13T05:13:24;52010.69;;;-145.69;51.67
1726;BME280;41776;48.260;8.928;2023-10-13T05:16:08;52024.56;;;-145.69;51.88
1726;BME280;41776;48.260;8.928;2023-10-13T05:18:52;51996.84;;;-145.69;51.66
1726;BME280;41776;48.260;8.928;2023-10-13T05:21:41;52004.75;;;-145.69;50.64
1726;BME280;41776;48.260;8.928;2023-10-13T05:24:25;52002.78;;;-145.69;51.07
1726;BME280;41776;48.260;8.928;2023-10-13T05:27:11;51992.88;;;-145.69;50.92
1726;BME280;41776;48.260;8.928;2023-10-13T05:29:55;52016.66;;;-145.69;51.13
1726;BME280;41776;48.260;8.928;2023-10-13T05:32:40;51992.88;;;-145.69;50.23
1726;BME280;41776;48.260;8.928;2023-10-13T05:35:24;52024.56;;;-145.69;50.13
1726;BME280;41776;48.260;8.928;2023-10-13T05:38:08;52010.69;;;-145.69;49.43
1726;BME280;41776;48.260;8.928;2023-10-13T05:40:52;52016.66;;;-145.69;49.33
1726;BME280;41776;48.260;8.928;2023-10-13T05:43:38;52024.56;;;-145.69;50.68
1726;BME280;41776;48.260;8.928;2023-10-13T05:46:28;52008.72;;;-145.69;50.38
1726;BME280;41776;48.260;8.928;2023-10-13T05:49:12;52022.59;;;-145.69;51.23
1726;BME280;41776;48.260;8.928;2023-10-13T05:51:59;52052.28;;;-145.69;51.02
1726;BME280;41776;48.260;8.928;2023-10-13T05:54:33;51984.97;;;-145.69;50.23
1726;BME280;41776;48.260;8.928;2023-10-13T05:57:17;52040.41;;;-145.69;49.48
1726;BME280;41776;48.260;8.928;2023-10-13T06:00:02;52016.66;;;-145.69;48.72
1726;BME280;41776;48.260;8.928;2023-10-13T06:02:46;52000.81;;;-145.69;48.79
1726;BME280;41776;48.260;8.928;2023-10-13T06:05:45;52014.66;;;-145.69;50.31
1726;BME280;41776;48.260;8.928;2023-10-13T06:08:43;52006.75;;;-145.69;49.79
1726;BME280;41776;48.260;8.928;2023-10-13T06:11:27;52012.69;;;-145.69;49.67
1726;BME280;41776;48.260;8.928;2023-10-13T06:14:11;52018.63;;;-145.69;48.65
1726;BME280;41776;48.260;8.928;2023-10-13T06:17:02;51981.00;;;-145.69;47.75
1726;BME280;41776;48.260;8.928;2023-10-13T06:19:46;52016.66;;;-145.69;46.03
1726;BME280;41776;48.260;8.928;2023-10-13T06:22:30;52000.81;;;-145.69;44.90
1726;BME280;41776;48.260;8.928;2023-10-13T06:25:14;52024.56;;;-145.69;44.01
1726;BME280;41776;48.260;8.928;2023-10-13T06:28:10;51986.94;;;-145.69;44.14
1726;BME280;41776;48.260;8.928;2023-10-13T06:30:55;51982.97;;;-145.69;44.12
1726;BME280;41776;48.260;8.928;2023-10-13T06:33:24;51984.97;;;-145.69;43.00
1726;BME280;41776;48.260;8.928;2023-10-13T06:35:55;51957.25;;;-145.69;43.70
1726;BME280;41776;48.260;8.928;2023-10-13T06:38:22;51969.13;;;-145.69;44.61
1726;BME280;41776;48.260;8.928;2023-10-13T06:40:49;51984.97;;;-145.69;44.35
1726;BME280;41776;48.260;8.928;2023-10-13T06:43:17;51975.06;;;-145.69;44.42
1726;BME280;41776;48.260;8.928;2023-10-13T06:45:47;51996.84;;;-145.69;43.41
1726;BME280;41776;48.260;8.928;2023-10-13T06:48:27;52000.81;;;-145.69;44.66
1726;BME280;41776;48.260;8.928;2023-10-13T06:50:58;51996.84;;;-145.69;43.65
1726;BME280;41776;48.260;8.928;2023-10-13T06:53:43;52000.81;;;-145.69;43.03
1726;BME280;41776;48.260;8.928;2023-10-13T06:56:12;51973.06;;;-145.69;41.14
1726;BME280;41776;48.260;8.928;2023-10-13T06:58:43;51988.91;;;-145.69;41.77
1726;BME280;41776;48.260;8.928;2023-10-13T07:01:12;52000.81;;;-145.69;41.34
1726;BME280;41776;48.260;8.928;2023-10-13T07:03:42;51965.16;;;-145.69;41.34
1726;BME280;41776;48.260;8.928;2023-10-13T07:06:09;51975.06;;;-145.69;41.53
1726;BME280;41776;48.260;8.928;2023-10-13T07:08:37;51969.13;;;-145.69;41.69
1726;BME280;41776;48.260;8.928;2023-10-13T07:11:04;51977.03;;;-145.69;41.49
1726;BME280;41776;48.260;8.928;2023-10-13T07:13:33;52002.78;;;-145.69;41.23
1726;BME280;41776;48.260;8.928;2023-10-13T07:16:03;51955.25;;;-145.69;41.62
1726;BME280;41776;48.260;8.928;2023-10-13T07:18:37;51941.41;;;-145.69;41.36
1726;BME280;41776;48.260;8.928;2023-10-13T07:21:15;51947.34;;;-145.69;40.26
1726;BME280;41776;48.260;8.928;2023-10-13T07:23:50;51959.22;;;-145.69;39.36
1726;BME280;41776;48.260;8.928;2023-10-13T07:26:29;51941.41;;;-145.69;38.08
1726;BME280;41776;48.260;8.928;2023-10-13T07:28:56;51933.47;;;-145.69;38.19
1726;BME280;41776;48.260;8.928;2023-10-13T07:31:22;51943.38;;;-145.69;38.14
1726;BME280;41776;48.260;8.928;2023-10-13T07:33:52;51941.41;;;-145.69;38.30
1726;BME280;41776;48.260;8.928;2023-10-13T07:36:22;51937.44;;;-145.69;37.26
1726;BME280;41776;48.260;8.928;2023-10-13T07:38:53;51917.63;;;-145.69;37.04
1726;BME280;41776;48.260;8.928;2023-10-13T07:41:45;51893.88;;;-145.69;37.49
1726;BME280;41776;48.260;8.928;2023-10-13T07:44:17;51921.59;;;-145.69;37.77
1726;BME280;41776;48.260;8.928;2023-10-13T07:46:45;51939.41;;;-145.69;36.43
1726;BME280;41776;48.260;8.928;2023-10-13T07:49:23;51923.56;;;-145.69;37.07
1726;BME280;41776;48.260;8.928;2023-10-13T07:51:52;51905.75;;;-145.69;36.00
1726;BME280;41776;48.260;8.928;2023-10-13T07:54:22;51931.50;;;-145.69;36.87
1726;BME280;41776;48.260;8.928;2023-10-13T07:56:49;51907.72;;;-145.69;36.28
1726;BME280;41776;48.260;8.928;2023-10-13T07:59:16;51915.66;;;-145.69;35.26
1726;BME280;41776;48.260;8.928;2023-10-13T08:01:47;51913.69;;;-145.69;35.70
1726;BME280;41776;48.260;8.928;2023-10-13T08:04:21;51913.69;;;-145.69;35.85
1726;BME280;41776;48.260;8.928;2023-10-13T08:06:55;51921.59;;;-145.69;34.91
1726;BME280;41776;48.260;8.928;2023-10-13T08:09:28;51866.16;;;-145.69;34.70
1726;BME280;41776;48.260;8.928;2023-10-13T08:11:57;51921.59;;;-145.69;35.37
1726;BME280;41776;48.260;8.928;2023-10-13T08:14:23;51876.06;;;-145.69;34.67
1726;BME280;41776;48.260;8.928;2023-10-13T08:16:54;51901.78;;;-145.69;35.57
1726;BME280;41776;48.260;8.928;2023-10-13T08:19:25;51919.63;;;-145.69;35.10
1726;BME280;41776;48.260;8.928;2023-10-13T08:21:55;51882.00;;;-145.69;35.64
1726;BME280;41776;48.260;8.928;2023-10-13T08:24:45;51878.03;;;-145.69;36.06
1726;BME280;41776;48.260;8.928;2023-10-13T08:27:40;51921.59;;;-145.69;35.29
1726;BME280;41776;48.260;8.928;2023-10-13T08:30:15;51878.03;;;-145.69;34.65
1726;BME280;41776;48.260;8.928;2023-10-13T08:33:02;51883.97;;;-145.69;33.56
1726;BME280;41776;48.260;8.928;2023-10-13T08:35:42;51883.97;;;-145.69;34.13
1726;BME280;41776;48.260;8.928;2023-10-13T08:38:21;51885.94;;;-145.69;33.98
1726;BME280;41776;48.260;8.928;2023-10-13T08:40:57;51882.00;;;-145.69;33.88
1726;BME280;41776;48.260;8.928;2023-10-13T08:44:03;51889.91;;;-145.69;34.26
1726;BME280;41776;48.260;8.928;2023-10-13T08:46:31;51864.16;;;-145.69;33.53
1726;BME280;41776;48.260;8.928;2023-10-13T08:49:19;51870.13;;;-145.69;32.84
1726;BME280;41776;48.260;8.928;2023-10-13T08:51:49;51874.06;;;-145.69;32.59
1726;BME280;41776;48.260;8.928;2023-10-13T08:54:32;51838.44;;;-145.69;32.49
1726;BME280;41776;48.260;8.928;2023-10-13T08:57:10;51850.31;;;-145.69;33.21
1726;BME280;41776;48.260;8.928;2023-10-13T08:59:54;51826.56;;;-145.69;31.84
1726;BME280;41776;48.260;8.928;2023-10-13T09:02:21;51848.34;;;-145.69;31.93
1726;BME280;41776;48.260;8.928;2023-10-13T09:05:09;51838.44;;;-145.69;32.22
1726;BME280;41776;48.260;8.928;2023-10-13T09:07:56;51854.28;;;-145.69;32.24
1726;BME280;41776;48.260;8.928;2023-10-13T09:10:34;51854.28;;;-145.69;32.57
1726;BME280;41776;48.260;8.928;2023-10-13T09:13:10;51854.28;;;-145.69;31.96
1726;BME280;41776;48.260;8.928;2023-10-13T09:15:44;51874.06;;;-145.69;32.53
1726;BME280;41776;48.260;8.928;2023-10-13T09:18:39;51820.59;;;-145.69;32.20
1726;BME280;41776;48.260;8.928;2023-10-13T09:21:12;51838.44;;;-145.69;32.98
1726;BME280;41776;48.260;8.928;2023-10-13T09:24:12;51846.34;;;-145.69;33.37
1726;BME280;41776;48.260;8.928;2023-10-13T09:26:52;51834.47;;;-145.69;33.07
1726;BME280;41776;48.260;8.928;2023-10-13T09:29:22;51822.59;;;-145.69;32.92
1726;BME280;41776;48.260;8.928;2023-10-13T09:31:59;51838.44;;;-145.69;32.74
1726;BME280;41776;48.260;8.928;2023-10-13T09:34:27;51794.88;;;-145.69;33.18
1726;BME280;41776;48.260;8.928;2023-10-13T09:36:59;51848.34;;;-145.69;32.73
1726;BME280;41776;48.260;8.928;2023-10-13T09:39:28;51830.50;;;-145.69;32.83
1726;BME280;41776;48.260;8.928;2023-10-13T09:42:00;51870.13;;;-145.69;31.55
1726;BME280;41776;48.260;8.928;2023-10-13T09:44:28;51828.53;;;-145.69;32.05
1726;BME280;41776;48.260;8.928;2023-10-13T09:47:01;51806.75;;;-145.69;31.55
1726;BME280;41776;48.260;8.928;2023-10-13T09:49:39;51818.63;;;-145.69;30.57
1726;BME280;41776;48.260;8.928;2023-10-13T09:52:17;51820.59;;;-145.69;30.99
1726;BME280;41776;48.260;8.928;2023-10-13T09:55:02;51788.94;;;-145.69;31.07
1726;BME280;41776;48.260;8.928;2023-10-13T09:57:35;51788.94;;;-145.69;30.65
1726;BME280;41776;48.260;8.928;2023-10-13T10:00:11;51781.00;;;-145.69;31.42
1726;BME280;41776;48.260;8.928;2023-10-13T10:03:00;51798.81;;;-145.69;31.67
1726;BME280;41776;48.260;8.928;2023-10-13T10:05:41;51796.84;;;-145.69;31.42
1726;BME280;41776;48.260;8.928;2023-10-13T10:08:10;51771.09;;;-145.69;30.44
1726;BME280;41776;48.260;8.928;2023-10-13T10:10:47;51777.03;;;-145.69;30.80
1726;BME280;41776;48.260;8.928;2023-10-13T10:13:24;51783.00;;;-145.69;30.49
1726;BME280;41776;48.260;8.928;2023-10-13T10:15:58;51771.09;;;-145.69;31.02
1726;BME280;41776;48.260;8.928;2023-10-13T10:18:28;51822.59;;;-145.69;30.91
1726;BME280;41776;48.260;8.928;2023-10-13T10:21:04;51796.84;;;-145.69;31.48
1726;BME280;41776;48.260;8.928;2023-10-13T10:23:35;51783.00;;;-145.69;31.19
1726;BME280;41776;48.260;8.928;2023-10-13T10:26:13;51798.81;;;-145.69;31.05
1726;BME280;41776;48.260;8.928;2023-10-13T10:28:42;51786.94;;;-145.69;31.32
1726;BME280;41776;48.260;8.928;2023-10-13T10:31:09;51779.03;;;-145.69;30.96
1726;BME280;41776;48.260;8.928;2023-10-13T10:33:38;51812.69;;;-145.69;31.42
1726;BME280;41776;48.260;8.928;2023-10-13T10:36:06;51798.81;;;-145.69;31.31
1726;BME280;41776;48.260;8.928;2023-10-13T10:38:51;51784.97;;;-145.69;30.37
1726;BME280;41776;48.260;8.928;2023-10-13T10:41:25;51784.97;;;-145.69;31.27
1726;BME280;41776;48.260;8.928;2023-10-13T10:43:55;51794.88;;;-145.69;31.09
1726;BME280;41776;48.260;8.928;2023-10-13T10:46:26;51753.28;;;-145.69;31.36
1726;BME280;41776;48.260;8.928;2023-10-13T10:49:03;51796.84;;;-145.69;32.13
1726;BME280;41776;48.260;8.928;2023-10-13T10:51:33;51755.25;;;-145.69;31.35
1726;BME280;41776;48.260;8.928;2023-10-13T10:54:18;51737.44;;;-145.69;31.13
1726;BME280;41776;48.260;8.928;2023-10-13T10:56:47;51794.88;;;-145.69;31.13
1726;BME280;41776;48.260;8.928;2023-10-13T10:59:18;51796.84;;;-145.69;31.39
1726;BME280;41776;48.260;8.928;2023-10-13T11:01:47;51775.06;;;-145.69;30.84
1726;BME280;41776;48.260;8.928;2023-10-13T11:04:17;51763.19;;;-145.69;30.60
1726;BME280;41776;48.260;8.928;2023-10-13T11:06:52;51790.91;;;-145.69;30.45
1726;BME280;41776;48.260;8.928;2023-10-13T11:09:24;51739.44;;;-145.69;30.88
1726;BME280;41776;48.260;8.928;2023-10-13T11:12:09;51783.00;;;-145.69;31.41
1726;BME280;41776;48.260;8.928;2023-10-13T11:14:41;51781.00;;;-145.69;30.97
1726;BME280;41776;48.260;8.928;2023-10-13T11:17:08;51753.28;;;-145.69;30.85
1726;BME280;41776;48.260;8.928;2023-10-13T11:19:43;51759.22;;;-145.69;29.96
1726;BME280;41776;48.260;8.928;2023-10-13T11:22:12;51783.00;;;-145.69;30.29
1726;BME280;41776;48.260;8.928;2023-10-13T11:24:56;51763.19;;;-145.69;29.42
1726;BME280;41776;48.260;8.928;2023-10-13T11:27:28;51767.16;;;-145.69;29.10
1726;BME280;41776;48.260;8.928;2023-10-13T11:30:09;51749.31;;;-145.69;29.33
1726;BME280;41776;48.260;8.928;2023-10-13T11:32:40;51739.44;;;-145.69;29.47
1726;BME280;41776;48.260;8.928;2023-10-13T11:35:11;51735.47;;;-145.69;29.21
1726;BME280;41776;48.260;8.928;2023-10-13T11:37:49;51747.34;;;-145.69;29.99
1726;BME280;41776;48.260;8.928;2023-10-13T11:40:22;51753.28;;;-145.69;30.21
1726;BME280;41776;48.260;8.928;2023-10-13T11:43:10;51759.22;;;-145.69;29.02
1726;BME280;41776;48.260;8.928;2023-10-13T11:45:40;51727.53;;;-145.69;29.71
1726;BME280;41776;48.260;8.928;2023-10-13T11:48:20;51743.38;;;-145.69;28.98
1726;BME280;41776;48.260;8.928;2023-10-13T11:51:00;51753.28;;;-145.69;29.61
1726;BME280;41776;48.260;8.928;2023-10-13T11:53:32;51741.41;;;-145.69;30.15
1726;BME280;41776;48.260;8.928;2023-10-13T11:55:59;51751.31;;;-145.69;29.82
1726;BME280;41776;48.260;8.928;2023-10-13T11:58:26;51761.22;;;-145.69;29.12
1726;BME280;41776;48.260;8.928;2023-10-13T12:00:53;51737.44;;;-145.69;29.38
1726;BME280;41776;48.260;8.928;2023-10-13T12:03:36;51727.53;;;-145.69;29.05
1726;BME280;41776;48.260;8.928;2023-10-13T12:06:33;51723.59;;;-145.69;29.18
1726;BME280;41776;48.260;8.928;2023-10-13T12:09:13;51753.28;;;-145.69;29.50
1726;BME280;41776;48.260;8.928;2023-10-13T12:12:04;51737.44;;;-145.69;29.54
1726;BME280;41776;48.260;8.928;2023-10-13T12:14:31;51723.59;;;-145.69;29.78
1726;BME280;41776;48.260;8.928;2023-10-13T12:17:02;51729.53;;;-145.69;29.74
1726;BME280;41776;48.260;8.928;2023-10-13T12:19:30;51705.75;;;-145.69;29.86
1726;BME280;41776;48.260;8.928;2023-10-13T12:21:57;51735.47;;;-145.69;29.61
1726;BME280;41776;48.260;8.928;2023-10-13T12:24:31;51735.47;;;-145.69;29.93
1726;BME280;41776;48.260;8.928;2023-10-13T12:27:06;51731.50;;;-145.69;29.43
1726;BME280;41776;48.260;8.928;2023-10-13T12:29:44;51749.31;;;-145.69;29.03
1726;BME280;41776;48.260;8.928;2023-10-13T12:32:11;51707.75;;;-145.69;28.58
1726;BME280;41776;48.260;8.928;2023-10-13T12:34:39;51723.59;;;-145.69;28.35
1726;BME280;41776;48.260;8.928;2023-10-13T12:37:23;51739.44;;;-145.69;29.90
1726;BME280;41776;48.260;8.928;2023-10-13T12:40:16;51737.44;;;-145.69;28.38
1726;BME280;41776;48.260;8.928;2023-10-13T12:43:01;51743.38;;;-145.69;29.10
1726;BME280;41776;48.260;8.928;2023-10-13T12:45:46;51713.69;;;-145.69;28.74
1726;BME280;41776;48.260;8.928;2023-10-13T12:48:32;51711.72;;;-145.69;28.88
1726;BME280;41776;48.260;8.928;2023-10-13T12:51:16;51731.50;;;-145.69;29.03
1726;BME280;41776;48.260;8.928;2023-10-13T12:54:06;51705.75;;;-145.69;28.27
1726;BME280;41776;48.260;8.928;2023-10-13T12:56:40;51725.56;;;-145.69;29.48
1726;BME280;41776;48.260;8.928;2023-10-13T12:59:08;51719.63;;;-145.69;28.85
1726;BME280;41776;48.260;8.928;2023-10-13T13:01:39;51731.50;;;-145.69;29.03
1726;BME280;41776;48.260;8.928;2023-10-13T13:04:08;51709.72;;;-145.69;28.56
1726;BME280;41776;48.260;8.928;2023-10-13T13:06:42;51723.59;;;-145.69;29.29
1726;BME280;41776;48.260;8.928;2023-10-13T13:09:08;51719.63;;;-145.69;29.01
1726;BME280;41776;48.260;8.928;2023-10-13T13:11:35;51759.22;;;-145.69;29.05
1726;BME280;41776;48.260;8.928;2023-10-13T13:14:06;51729.53;;;-145.69;28.87
1726;BME280;41776;48.260;8.928;2023-10-13T13:16:34;51703.78;;;-145.69;28.44
1726;BME280;41776;48.260;8.928;2023-10-13T13:19:01;51727.53;;;-145.69;28.45
1726;BME280;41776;48.260;8.928;2023-10-13T13:21:35;51707.75;;;-145.69;28.45
1726;BME280;41776;48.260;8.928;2023-10-13T13:24:02;51733.50;;;-145.69;28.25
1726;BME280;41776;48.260;8.928;2023-10-13T13:26:29;51719.63;;;-145.69;28.99
1726;BME280;41776;48.260;8.928;2023-10-13T13:28:56;51695.88;;;-145.69;28.45